Lambeth, United Kingdom
Current Conditions -  °F | °C
As of 6:50 AM on Friday 19 Dec 2014 (Local Time) from EGLC Reporting Station
Light Rain Light Rain  
Wind Chill: 55°   Ceiling: 1000
Heat Index: 55°   Visibility: 4mi
Dew Point: 52°   Wind: 14mph
Humidity: 88%   Direction: 260°W
Pressure: 29.8"   Gusts: NA
Location:  51.49°N, 0.11°W
Report Text: EGLC 190650Z 26012KT 6000 -RA BKN010 BKN016 13/11 Q1009
Loading
Personal Weather Stations






























Interactive Weather Map New forecast layout! Learn more

10-Day Weather Forecast

Advertisements
Track Severe Weather on mobile